sensor_id;sensor_type;location;lat;lon;timestamp;P1;durP1;ratioP1;P2;durP2;ratioP2
1136;SDS011;557;48.466;7.950;2023-06-14T00:01:15;23.50;;;22.10;;
1136;SDS011;557;48.466;7.950;2023-06-14T00:04:02;23.27;;;21.77;;
1136;SDS011;557;48.466;7.950;2023-06-14T00:06:50;23.20;;;21.80;;
1136;SDS011;557;48.466;7.950;2023-06-14T00:09:38;23.07;;;21.60;;
1136;SDS011;557;48.466;7.950;2023-06-14T00:12:26;22.20;;;20.90;;
1136;SDS011;557;48.466;7.950;2023-06-14T00:15:14;22.90;;;21.50;;
1136;SDS011;557;48.466;7.950;2023-06-14T00:18:01;22.30;;;21.00;;
1136;SDS011;557;48.466;7.950;2023-06-14T00:20:49;23.40;;;21.60;;
1136;SDS011;557;48.466;7.950;2023-06-14T00:23:37;22.53;;;21.13;;
1136;SDS011;557;48.466;7.950;2023-06-14T00:26:24;22.17;;;20.77;;
1136;SDS011;557;48.466;7.950;2023-06-14T00:29:13;23.40;;;21.80;;
1136;SDS011;557;48.466;7.950;2023-06-14T00:32:01;22.33;;;20.73;;
1136;SDS011;557;48.466;7.950;2023-06-14T00:34:48;22.40;;;21.00;;
1136;SDS011;557;48.466;7.950;2023-06-14T00:37:35;22.37;;;20.90;;
1136;SDS011;557;48.466;7.950;2023-06-14T00:40:23;22.83;;;21.43;;
1136;SDS011;557;48.466;7.950;2023-06-14T00:43:10;23.10;;;21.60;;
1136;SDS011;557;48.466;7.950;2023-06-14T00:45:59;23.17;;;21.57;;
1136;SDS011;557;48.466;7.950;2023-06-14T00:48:46;22.90;;;21.50;;
1136;SDS011;557;48.466;7.950;2023-06-14T00:51:34;23.10;;;21.60;;
1136;SDS011;557;48.466;7.950;2023-06-14T00:54:22;22.73;;;21.33;;
1136;SDS011;557;48.466;7.950;2023-06-14T00:57:10;22.57;;;21.17;;
1136;SDS011;557;48.466;7.950;2023-06-14T00:59:58;23.03;;;21.50;;
1136;SDS011;557;48.466;7.950;2023-06-14T01:02:47;22.73;;;21.23;;
1136;SDS011;557;48.466;7.950;2023-06-14T01:05:35;22.40;;;20.90;;
1136;SDS011;557;48.466;7.950;2023-06-14T01:08:23;22.13;;;20.53;;
1136;SDS011;557;48.466;7.950;2023-06-14T01:11:19;22.73;;;21.23;;
1136;SDS011;557;48.466;7.950;2023-06-14T01:14:11;22.90;;;21.40;;
1136;SDS011;557;48.466;7.950;2023-06-14T01:17:00;22.50;;;21.17;;
1136;SDS011;557;48.466;7.950;2023-06-14T01:19:50;22.90;;;21.30;;
1136;SDS011;557;48.466;7.950;2023-06-14T01:22:48;22.57;;;21.17;;
1136;SDS011;557;48.466;7.950;2023-06-14T01:25:38;23.07;;;21.63;;
1136;SDS011;557;48.466;7.950;2023-06-14T01:28:26;23.43;;;21.87;;
1136;SDS011;557;48.466;7.950;2023-06-14T01:31:17;22.60;;;21.23;;
1136;SDS011;557;48.466;7.950;2023-06-14T01:34:07;23.83;;;21.80;;
1136;SDS011;557;48.466;7.950;2023-06-14T01:36:55;22.73;;;21.23;;
1136;SDS011;557;48.466;7.950;2023-06-14T01:39:44;22.20;;;20.80;;
1136;SDS011;557;48.466;7.950;2023-06-14T01:42:32;23.33;;;21.73;;
1136;SDS011;557;48.466;7.950;2023-06-14T01:45:22;22.50;;;21.10;;
1136;SDS011;557;48.466;7.950;2023-06-14T01:48:10;22.37;;;20.97;;
1136;SDS011;557;48.466;7.950;2023-06-14T01:50:58;23.40;;;21.90;;
1136;SDS011;557;48.466;7.950;2023-06-14T01:53:45;22.37;;;20.97;;
1136;SDS011;557;48.466;7.950;2023-06-14T01:56:35;23.57;;;22.07;;
1136;SDS011;557;48.466;7.950;2023-06-14T01:59:22;22.10;;;20.80;;
1136;SDS011;557;48.466;7.950;2023-06-14T02:02:09;22.93;;;21.43;;
1136;SDS011;557;48.466;7.950;2023-06-14T02:04:57;22.07;;;20.67;;
1136;SDS011;557;48.466;7.950;2023-06-14T02:07:44;21.70;;;20.40;;
1136;SDS011;557;48.466;7.950;2023-06-14T02:10:32;21.90;;;20.60;;
1136;SDS011;557;48.466;7.950;2023-06-14T02:13:20;22.20;;;20.73;;
1136;SDS011;557;48.466;7.950;2023-06-14T02:16:08;22.97;;;21.57;;
1136;SDS011;557;48.466;7.950;2023-06-14T02:18:55;23.37;;;21.67;;
1136;SDS011;557;48.466;7.950;2023-06-14T02:21:43;23.07;;;21.57;;
1136;SDS011;557;48.466;7.950;2023-06-14T02:24:30;23.30;;;21.57;;
1136;SDS011;557;48.466;7.950;2023-06-14T02:27:18;22.40;;;21.00;;
1136;SDS011;557;48.466;7.950;2023-06-14T02:30:07;22.13;;;20.73;;
1136;SDS011;557;48.466;7.950;2023-06-14T02:32:55;21.73;;;20.33;;
1136;SDS011;557;48.466;7.950;2023-06-14T02:35:42;22.53;;;21.03;;
1136;SDS011;557;48.466;7.950;2023-06-14T02:38:30;21.60;;;20.30;;
1136;SDS011;557;48.466;7.950;2023-06-14T02:41:17;22.17;;;20.80;;
1136;SDS011;557;48.466;7.950;2023-06-14T02:44:04;22.20;;;20.73;;
1136;SDS011;557;48.466;7.950;2023-06-14T02:46:53;21.33;;;20.03;;
1136;SDS011;557;48.466;7.950;2023-06-14T02:49:41;22.60;;;21.00;;
1136;SDS011;557;48.466;7.950;2023-06-14T02:52:28;23.00;;;21.33;;
1136;SDS011;557;48.466;7.950;2023-06-14T02:55:15;21.87;;;20.57;;
1136;SDS011;557;48.466;7.950;2023-06-14T02:58:03;21.60;;;20.20;;
1136;SDS011;557;48.466;7.950;2023-06-14T03:00:50;21.93;;;20.63;;
1136;SDS011;557;48.466;7.950;2023-06-14T03:03:39;22.27;;;20.87;;
1136;SDS011;557;48.466;7.950;2023-06-14T03:06:27;22.93;;;21.30;;
1136;SDS011;557;48.466;7.950;2023-06-14T03:09:15;22.03;;;20.63;;
1136;SDS011;557;48.466;7.950;2023-06-14T03:12:02;22.70;;;21.30;;
1136;SDS011;557;48.466;7.950;2023-06-14T03:14:52;22.97;;;21.43;;
1136;SDS011;557;48.466;7.950;2023-06-14T03:17:42;22.67;;;21.10;;
1136;SDS011;557;48.466;7.950;2023-06-14T03:20:32;22.37;;;20.97;;
1136;SDS011;557;48.466;7.950;2023-06-14T03:23:19;22.43;;;21.03;;
1136;SDS011;557;48.466;7.950;2023-06-14T03:26:06;22.93;;;21.33;;
1136;SDS011;557;48.466;7.950;2023-06-14T03:28:54;23.20;;;21.60;;
1136;SDS011;557;48.466;7.950;2023-06-14T03:31:55;22.23;;;20.90;;
1136;SDS011;557;48.466;7.950;2023-06-14T03:34:44;23.40;;;21.90;;
1136;SDS011;557;48.466;7.950;2023-06-14T03:37:33;23.23;;;21.73;;
1136;SDS011;557;48.466;7.950;2023-06-14T03:40:20;22.57;;;21.07;;
1136;SDS011;557;48.466;7.950;2023-06-14T03:43:12;22.57;;;21.27;;
1136;SDS011;557;48.466;7.950;2023-06-14T03:45:59;22.23;;;20.77;;
1136;SDS011;557;48.466;7.950;2023-06-14T03:48:46;22.80;;;21.10;;
1136;SDS011;557;48.466;7.950;2023-06-14T03:51:34;21.70;;;20.20;;
1136;SDS011;557;48.466;7.950;2023-06-14T03:54:22;21.73;;;20.33;;
1136;SDS011;557;48.466;7.950;2023-06-14T03:57:10;22.13;;;20.73;;
1136;SDS011;557;48.466;7.950;2023-06-14T03:59:57;22.40;;;21.00;;
1136;SDS011;557;48.466;7.950;2023-06-14T04:02:44;22.00;;;20.60;;
1136;SDS011;557;48.466;7.950;2023-06-14T04:05:32;22.00;;;20.50;;
1136;SDS011;557;48.466;7.950;2023-06-14T04:08:19;23.07;;;21.40;;
1136;SDS011;557;48.466;7.950;2023-06-14T04:11:09;21.97;;;20.57;;
1136;SDS011;557;48.466;7.950;2023-06-14T04:13:56;21.93;;;20.63;;
1136;SDS011;557;48.466;7.950;2023-06-14T04:16:43;22.10;;;20.70;;
1136;SDS011;557;48.466;7.950;2023-06-14T04:19:31;22.00;;;20.57;;
1136;SDS011;557;48.466;7.950;2023-06-14T04:22:18;21.60;;;20.20;;
1136;SDS011;557;48.466;7.950;2023-06-14T04:25:06;21.10;;;19.80;;
1136;SDS011;557;48.466;7.950;2023-06-14T04:27:55;21.23;;;19.93;;
1136;SDS011;557;48.466;7.950;2023-06-14T04:30:43;22.30;;;20.80;;
1136;SDS011;557;48.466;7.950;2023-06-14T04:33:32;23.40;;;21.70;;
1136;SDS011;557;48.466;7.950;2023-06-14T04:36:28;22.33;;;20.93;;
1136;SDS011;557;48.466;7.950;2023-06-14T04:39:16;22.63;;;21.13;;
1136;SDS011;557;48.466;7.950;2023-06-14T04:42:04;22.07;;;20.67;;
1136;SDS011;557;48.466;7.950;2023-06-14T04:44:54;21.30;;;19.90;;
1136;SDS011;557;48.466;7.950;2023-06-14T04:47:41;20.93;;;19.70;;
1136;SDS011;557;48.466;7.950;2023-06-14T04:50:29;22.87;;;21.27;;
1136;SDS011;557;48.466;7.950;2023-06-14T04:53:18;23.03;;;21.33;;
1136;SDS011;557;48.466;7.950;2023-06-14T04:56:08;22.77;;;21.17;;
1136;SDS011;557;48.466;7.950;2023-06-14T04:58:56;23.57;;;22.00;;
1136;SDS011;557;48.466;7.950;2023-06-14T05:01:45;23.00;;;21.40;;
1136;SDS011;557;48.466;7.950;2023-06-14T05:04:33;23.23;;;21.57;;
1136;SDS011;557;48.466;7.950;2023-06-14T05:07:25;22.27;;;20.87;;
1136;SDS011;557;48.466;7.950;2023-06-14T05:10:12;22.50;;;20.90;;
1136;SDS011;557;48.466;7.950;2023-06-14T05:12:59;21.93;;;20.53;;
1136;SDS011;557;48.466;7.950;2023-06-14T05:15:47;22.40;;;20.80;;
1136;SDS011;557;48.466;7.950;2023-06-14T05:18:36;22.07;;;20.63;;
1136;SDS011;557;48.466;7.950;2023-06-14T05:21:23;22.30;;;20.80;;
1136;SDS011;557;48.466;7.950;2023-06-14T05:24:11;23.10;;;21.50;;
1136;SDS011;557;48.466;7.950;2023-06-14T05:26:58;22.10;;;20.50;;
1136;SDS011;557;48.466;7.950;2023-06-14T05:29:45;22.27;;;20.83;;
1136;SDS011;557;48.466;7.950;2023-06-14T05:32:33;21.90;;;20.53;;
1136;SDS011;557;48.466;7.950;2023-06-14T05:35:21;22.00;;;20.63;;
1136;SDS011;557;48.466;7.950;2023-06-14T05:38:09;23.00;;;21.40;;
1136;SDS011;557;48.466;7.950;2023-06-14T05:40:56;23.50;;;21.83;;
1136;SDS011;557;48.466;7.950;2023-06-14T05:43:45;23.27;;;21.60;;
1136;SDS011;557;48.466;7.950;2023-06-14T05:46:32;22.67;;;21.17;;
1136;SDS011;557;48.466;7.950;2023-06-14T05:49:19;22.07;;;20.70;;
1136;SDS011;557;48.466;7.950;2023-06-14T05:52:09;22.33;;;20.93;;
1136;SDS011;557;48.466;7.950;2023-06-14T05:54:58;22.83;;;21.33;;
1136;SDS011;557;48.466;7.950;2023-06-14T05:57:46;22.40;;;20.87;;
1136;SDS011;557;48.466;7.950;2023-06-14T06:00:34;22.67;;;21.07;;
1136;SDS011;557;48.466;7.950;2023-06-14T06:03:21;22.77;;;21.27;;
1136;SDS011;557;48.466;7.950;2023-06-14T06:06:09;23.10;;;21.50;;
1136;SDS011;557;48.466;7.950;2023-06-14T06:08:57;23.00;;;21.40;;
1136;SDS011;557;48.466;7.950;2023-06-14T06:11:45;23.70;;;22.13;;
1136;SDS011;557;48.466;7.950;2023-06-14T06:14:33;22.73;;;21.13;;
1136;SDS011;557;48.466;7.950;2023-06-14T06:17:20;22.50;;;21.10;;
1136;SDS011;557;48.466;7.950;2023-06-14T06:20:08;24.67;;;22.77;;
1136;SDS011;557;48.466;7.950;2023-06-14T06:22:57;22.50;;;21.10;;
1136;SDS011;557;48.466;7.950;2023-06-14T06:25:46;22.37;;;20.87;;
1136;SDS011;557;48.466;7.950;2023-06-14T06:28:33;22.53;;;21.13;;
1136;SDS011;557;48.466;7.950;2023-06-14T06:31:20;23.90;;;22.20;;
1136;SDS011;557;48.466;7.950;2023-06-14T06:34:08;22.73;;;21.33;;
1136;SDS011;557;48.466;7.950;2023-06-14T06:36:55;22.80;;;21.30;;
1136;SDS011;557;48.466;7.950;2023-06-14T06:39:43;23.50;;;21.97;;
1136;SDS011;557;48.466;7.950;2023-06-14T06:42:31;23.30;;;21.60;;
1136;SDS011;557;48.466;7.950;2023-06-14T06:45:19;23.07;;;21.53;;
1136;SDS011;557;48.466;7.950;2023-06-14T06:48:06;23.93;;;22.33;;
1136;SDS011;557;48.466;7.950;2023-06-14T06:50:55;22.83;;;21.20;;
1136;SDS011;557;48.466;7.950;2023-06-14T06:53:42;24.20;;;22.37;;
1136;SDS011;557;48.466;7.950;2023-06-14T06:56:30;23.53;;;21.73;;
1136;SDS011;557;48.466;7.950;2023-06-14T06:59:19;22.70;;;21.20;;
1136;SDS011;557;48.466;7.950;2023-06-14T07:02:06;23.17;;;21.57;;
1136;SDS011;557;48.466;7.950;2023-06-14T07:04:53;22.50;;;21.00;;
1136;SDS011;557;48.466;7.950;2023-06-14T07:07:41;23.37;;;21.87;;
1136;SDS011;557;48.466;7.950;2023-06-14T07:10:28;23.57;;;22.00;;
1136;SDS011;557;48.466;7.950;2023-06-14T07:13:16;22.87;;;21.30;;
1136;SDS011;557;48.466;7.950;2023-06-14T07:16:05;23.20;;;21.70;;
1136;SDS011;557;48.466;7.950;2023-06-14T07:18:52;22.50;;;21.00;;
1136;SDS011;557;48.466;7.950;2023-06-14T07:21:40;22.90;;;21.30;;
1136;SDS011;557;48.466;7.950;2023-06-14T07:24:27;22.93;;;21.43;;
1136;SDS011;557;48.466;7.950;2023-06-14T07:27:14;23.30;;;21.90;;
1136;SDS011;557;48.466;7.950;2023-06-14T07:30:02;22.00;;;20.70;;
1136;SDS011;557;48.466;7.950;2023-06-14T07:32:51;23.30;;;21.80;;
1136;SDS011;557;48.466;7.950;2023-06-14T07:35:39;23.50;;;21.87;;
1136;SDS011;557;48.466;7.950;2023-06-14T07:38:26;23.93;;;22.23;;
1136;SDS011;557;48.466;7.950;2023-06-14T07:41:15;24.43;;;22.40;;
1136;SDS011;557;48.466;7.950;2023-06-14T07:44:03;22.73;;;21.33;;
1136;SDS011;557;48.466;7.950;2023-06-14T07:46:50;22.63;;;21.10;;
1136;SDS011;557;48.466;7.950;2023-06-14T07:53:41;23.97;;;22.37;;
1136;SDS011;557;48.466;7.950;2023-06-14T07:56:28;23.37;;;21.80;;
1136;SDS011;557;48.466;7.950;2023-06-14T07:59:15;23.30;;;21.67;;
1136;SDS011;557;48.466;7.950;2023-06-14T08:02:03;22.73;;;21.23;;
1136;SDS011;557;48.466;7.950;2023-06-14T08:04:51;23.00;;;21.60;;
1136;SDS011;557;48.466;7.950;2023-06-14T08:07:38;23.27;;;21.60;;
1136;SDS011;557;48.466;7.950;2023-06-14T08:10:27;22.40;;;21.10;;
1136;SDS011;557;48.466;7.950;2023-06-14T08:13:15;22.37;;;20.97;;
1136;SDS011;557;48.466;7.950;2023-06-14T08:16:02;22.50;;;21.10;;
1136;SDS011;557;48.466;7.950;2023-06-14T08:18:50;23.83;;;22.00;;
1136;SDS011;557;48.466;7.950;2023-06-14T08:21:38;23.80;;;22.30;;
1136;SDS011;557;48.466;7.950;2023-06-14T08:24:25;24.00;;;22.30;;
1136;SDS011;557;48.466;7.950;2023-06-14T08:27:14;23.50;;;22.10;;
1136;SDS011;557;48.466;7.950;2023-06-14T08:30:02;23.70;;;22.10;;
1136;SDS011;557;48.466;7.950;2023-06-14T08:32:50;24.00;;;22.50;;
1136;SDS011;557;48.466;7.950;2023-06-14T08:35:37;23.17;;;21.73;;
1136;SDS011;557;48.466;7.950;2023-06-14T08:42:27;22.83;;;21.52;;
1136;SDS011;557;48.466;7.950;2023-06-14T08:45:14;24.13;;;22.63;;
1136;SDS011;557;48.466;7.950;2023-06-14T08:48:02;25.20;;;23.37;;
1136;SDS011;557;48.466;7.950;2023-06-14T08:50:51;25.13;;;23.53;;
1136;SDS011;557;48.466;7.950;2023-06-14T08:53:48;24.83;;;23.23;;
1136;SDS011;557;48.466;7.950;2023-06-14T08:56:38;24.77;;;23.37;;
1136;SDS011;557;48.466;7.950;2023-06-14T08:59:28;25.17;;;23.58;;
1136;SDS011;557;48.466;7.950;2023-06-14T09:02:19;24.08;;;22.67;;
1136;SDS011;557;48.466;7.950;2023-06-14T09:05:07;25.30;;;23.70;;
1136;SDS011;557;48.466;7.950;2023-06-14T09:07:56;25.23;;;23.63;;
1136;SDS011;557;48.466;7.950;2023-06-14T09:10:46;25.25;;;23.65;;
1136;SDS011;557;48.466;7.950;2023-06-14T09:13:33;24.83;;;23.33;;
1136;SDS011;557;48.466;7.950;2023-06-14T09:16:22;25.92;;;24.33;;
1136;SDS011;557;48.466;7.950;2023-06-14T09:19:10;25.92;;;24.23;;
1136;SDS011;557;48.466;7.950;2023-06-14T09:22:07;25.58;;;24.00;;
1136;SDS011;557;48.466;7.950;2023-06-14T09:24:57;26.05;;;24.40;;
1136;SDS011;557;48.466;7.950;2023-06-14T09:27:45;24.90;;;23.40;;
1136;SDS011;557;48.466;7.950;2023-06-14T09:30:34;25.05;;;23.55;;
1136;SDS011;557;48.466;7.950;2023-06-14T09:33:24;25.60;;;23.98;;
1136;SDS011;557;48.466;7.950;2023-06-14T09:36:12;25.83;;;24.05;;
1136;SDS011;557;48.466;7.950;2023-06-14T09:39:02;27.08;;;25.27;;
1136;SDS011;557;48.466;7.950;2023-06-14T09:41:51;26.98;;;24.90;;
1136;SDS011;557;48.466;7.950;2023-06-14T09:44:39;25.98;;;24.38;;
1136;SDS011;557;48.466;7.950;2023-06-14T09:47:26;25.05;;;23.55;;
1136;SDS011;557;48.466;7.950;2023-06-14T09:50:15;25.70;;;24.00;;
1136;SDS011;557;48.466;7.950;2023-06-14T09:53:02;26.67;;;24.98;;
1136;SDS011;557;48.466;7.950;2023-06-14T09:55:52;26.00;;;24.40;;
1136;SDS011;557;48.466;7.950;2023-06-14T09:58:44;25.42;;;23.83;;
1136;SDS011;557;48.466;7.950;2023-06-14T10:01:31;26.45;;;24.70;;
1136;SDS011;557;48.466;7.950;2023-06-14T10:04:19;26.05;;;24.50;;
1136;SDS011;557;48.466;7.950;2023-06-14T10:07:10;25.40;;;23.75;;
1136;SDS011;557;48.466;7.950;2023-06-14T10:09:57;25.83;;;24.02;;
1136;SDS011;557;48.466;7.950;2023-06-14T10:12:46;25.67;;;24.00;;
1136;SDS011;557;48.466;7.950;2023-06-14T10:15:35;24.10;;;22.50;;
1136;SDS011;557;48.466;7.950;2023-06-14T10:18:31;25.67;;;23.73;;
1136;SDS011;557;48.466;7.950;2023-06-14T10:21:23;25.50;;;23.90;;
1136;SDS011;557;48.466;7.950;2023-06-14T10:24:18;26.33;;;24.63;;
1136;SDS011;557;48.466;7.950;2023-06-14T10:27:13;22.95;;;21.35;;
1136;SDS011;557;48.466;7.950;2023-06-14T10:30:03;24.13;;;22.58;;
1136;SDS011;557;48.466;7.950;2023-06-14T10:37:01;23.20;;;21.80;;
1136;SDS011;557;48.466;7.950;2023-06-14T10:39:53;23.25;;;21.85;;
1136;SDS011;557;48.466;7.950;2023-06-14T10:42:40;23.73;;;22.33;;
1136;SDS011;557;48.466;7.950;2023-06-14T10:45:38;24.50;;;22.90;;
1136;SDS011;557;48.466;7.950;2023-06-14T10:48:59;24.08;;;22.58;;
1136;SDS011;557;48.466;7.950;2023-06-14T10:51:49;23.90;;;22.50;;
1136;SDS011;557;48.466;7.950;2023-06-14T10:54:37;24.13;;;22.63;;
1136;SDS011;557;48.466;7.950;2023-06-14T10:57:26;23.83;;;22.33;;
1136;SDS011;557;48.466;7.950;2023-06-14T11:00:14;24.33;;;22.88;;
1136;SDS011;557;48.466;7.950;2023-06-14T11:12:54;24.05;;;22.60;;
1136;SDS011;557;48.466;7.950;2023-06-14T11:15:43;22.98;;;21.30;;
1136;SDS011;557;48.466;7.950;2023-06-14T11:18:32;22.85;;;21.52;;
1136;SDS011;557;48.466;7.950;2023-06-14T11:21:20;24.45;;;22.65;;
1136;SDS011;557;48.466;7.950;2023-06-14T11:24:09;24.33;;;22.67;;
1136;SDS011;557;48.466;7.950;2023-06-14T11:26:57;22.83;;;21.42;;
1136;SDS011;557;48.466;7.950;2023-06-14T11:29:49;23.83;;;22.40;;
1136;SDS011;557;48.466;7.950;2023-06-14T11:32:37;23.02;;;21.73;;
1136;SDS011;557;48.466;7.950;2023-06-14T11:35:25;22.80;;;21.23;;
1136;SDS011;557;48.466;7.950;2023-06-14T11:38:13;22.05;;;20.75;;
1136;SDS011;557;48.466;7.950;2023-06-14T11:41:00;22.38;;;21.08;;
1136;SDS011;557;48.466;7.950;2023-06-14T11:43:47;23.85;;;22.45;;
1136;SDS011;557;48.466;7.950;2023-06-14T11:46:40;23.70;;;22.30;;
1136;SDS011;557;48.466;7.950;2023-06-14T11:49:27;23.75;;;22.00;;
1136;SDS011;557;48.466;7.950;2023-06-14T11:52:14;23.33;;;21.95;;
1136;SDS011;557;48.466;7.950;2023-06-14T11:55:03;25.23;;;23.70;;
1136;SDS011;557;48.466;7.950;2023-06-14T11:57:51;22.88;;;21.58;;
1136;SDS011;557;48.466;7.950;2023-06-14T12:00:40;23.83;;;22.23;;
1136;SDS011;557;48.466;7.950;2023-06-14T12:03:30;19.83;;;18.83;;
1136;SDS011;557;48.466;7.950;2023-06-14T12:06:25;19.60;;;18.50;;
1136;SDS011;557;48.466;7.950;2023-06-14T12:09:17;20.20;;;19.08;;
1136;SDS011;557;48.466;7.950;2023-06-14T12:12:05;20.85;;;19.65;;
1136;SDS011;557;48.466;7.950;2023-06-14T12:14:54;19.98;;;18.85;;
1136;SDS011;557;48.466;7.950;2023-06-14T12:17:42;20.08;;;18.92;;
1136;SDS011;557;48.466;7.950;2023-06-14T12:20:32;22.33;;;20.92;;
1136;SDS011;557;48.466;7.950;2023-06-14T12:23:20;20.88;;;19.58;;
1136;SDS011;557;48.466;7.950;2023-06-14T12:26:07;21.45;;;20.25;;
1136;SDS011;557;48.466;7.950;2023-06-14T12:28:55;21.33;;;19.85;;
1136;SDS011;557;48.466;7.950;2023-06-14T12:31:43;20.25;;;19.15;;
1136;SDS011;557;48.466;7.950;2023-06-14T12:34:30;21.58;;;20.48;;
1136;SDS011;557;48.466;7.950;2023-06-14T12:37:19;21.17;;;20.02;;
1136;SDS011;557;48.466;7.950;2023-06-14T12:40:07;22.63;;;21.33;;
1136;SDS011;557;48.466;7.950;2023-06-14T12:42:57;21.13;;;19.73;;
1136;SDS011;557;48.466;7.950;2023-06-14T12:45:44;20.83;;;19.52;;
1136;SDS011;557;48.466;7.950;2023-06-14T12:48:31;21.77;;;20.52;;
1136;SDS011;557;48.466;7.950;2023-06-14T12:51:19;21.35;;;20.02;;
1136;SDS011;557;48.466;7.950;2023-06-14T12:54:09;20.38;;;19.02;;
1136;SDS011;557;48.466;7.950;2023-06-14T12:56:57;21.48;;;20.20;;
1136;SDS011;557;48.466;7.950;2023-06-14T12:59:44;21.40;;;20.02;;
1136;SDS011;557;48.466;7.950;2023-06-14T13:02:32;21.45;;;20.20;;
1136;SDS011;557;48.466;7.950;2023-06-14T13:05:19;21.10;;;19.90;;
1136;SDS011;557;48.466;7.950;2023-06-14T13:08:07;21.33;;;20.02;;
1136;SDS011;557;48.466;7.950;2023-06-14T13:10:56;20.98;;;19.77;;
1136;SDS011;557;48.466;7.950;2023-06-14T13:13:43;20.52;;;19.42;;
1136;SDS011;557;48.466;7.950;2023-06-14T13:16:30;21.15;;;19.95;;
1136;SDS011;557;48.466;7.950;2023-06-14T13:19:18;20.88;;;19.67;;
1136;SDS011;557;48.466;7.950;2023-06-14T13:22:05;22.20;;;21.00;;
1136;SDS011;557;48.466;7.950;2023-06-14T13:24:53;20.95;;;19.85;;
1136;SDS011;557;48.466;7.950;2023-06-14T13:27:41;22.13;;;20.73;;
1136;SDS011;557;48.466;7.950;2023-06-14T13:30:29;21.65;;;20.35;;
1136;SDS011;557;48.466;7.950;2023-06-14T13:36:06;21.42;;;19.95;;
1136;SDS011;557;48.466;7.950;2023-06-14T13:38:54;21.58;;;20.35;;
1136;SDS011;557;48.466;7.950;2023-06-14T13:41:41;22.52;;;21.13;;
1136;SDS011;557;48.466;7.950;2023-06-14T13:44:30;21.45;;;20.25;;
1136;SDS011;557;48.466;7.950;2023-06-14T13:47:18;22.17;;;20.83;;
1136;SDS011;557;48.466;7.950;2023-06-14T13:50:06;21.83;;;20.52;;
1136;SDS011;557;48.466;7.950;2023-06-14T13:52:54;21.70;;;20.50;;
1136;SDS011;557;48.466;7.950;2023-06-14T13:55:41;20.85;;;19.70;;
1136;SDS011;557;48.466;7.950;2023-06-14T13:58:28;22.58;;;21.17;;
1136;SDS011;557;48.466;7.950;2023-06-14T14:01:17;21.83;;;20.42;;
1136;SDS011;557;48.466;7.950;2023-06-14T14:04:05;21.90;;;20.33;;
1136;SDS011;557;48.466;7.950;2023-06-14T14:06:52;21.15;;;19.95;;
1136;SDS011;557;48.466;7.950;2023-06-14T14:09:40;20.85;;;19.75;;
1136;SDS011;557;48.466;7.950;2023-06-14T14:12:28;20.90;;;19.80;;
1136;SDS011;557;48.466;7.950;2023-06-14T14:15:15;21.13;;;19.92;;
1136;SDS011;557;48.466;7.950;2023-06-14T14:18:04;20.92;;;19.83;;
1136;SDS011;557;48.466;7.950;2023-06-14T14:20:52;22.55;;;20.95;;
1136;SDS011;557;48.466;7.950;2023-06-14T14:23:39;21.60;;;20.33;;
1136;SDS011;557;48.466;7.950;2023-06-14T14:26:27;21.20;;;20.00;;
1136;SDS011;557;48.466;7.950;2023-06-14T14:29:14;22.58;;;21.17;;
1136;SDS011;557;48.466;7.950;2023-06-14T14:32:02;21.35;;;20.05;;
1136;SDS011;557;48.466;7.950;2023-06-14T14:34:51;21.48;;;20.17;;
1136;SDS011;557;48.466;7.950;2023-06-14T14:37:39;20.77;;;19.58;;
1136;SDS011;557;48.466;7.950;2023-06-14T14:40:26;21.98;;;20.67;;
1136;SDS011;557;48.466;7.950;2023-06-14T14:43:13;21.70;;;20.30;;
1136;SDS011;557;48.466;7.950;2023-06-14T14:46:01;21.60;;;20.38;;
1136;SDS011;557;48.466;7.950;2023-06-14T14:48:48;22.08;;;20.77;;
1136;SDS011;557;48.466;7.950;2023-06-14T14:51:37;22.95;;;21.65;;
1136;SDS011;557;48.466;7.950;2023-06-14T14:54:25;21.83;;;20.63;;
1136;SDS011;557;48.466;7.950;2023-06-14T14:57:14;25.67;;;23.88;;
1136;SDS011;557;48.466;7.950;2023-06-14T15:00:02;24.92;;;23.48;;
1136;SDS011;557;48.466;7.950;2023-06-14T15:02:51;22.27;;;21.08;;
1136;SDS011;557;48.466;7.950;2023-06-14T15:05:38;22.85;;;21.55;;
1136;SDS011;557;48.466;7.950;2023-06-14T15:08:27;22.08;;;20.77;;
1136;SDS011;557;48.466;7.950;2023-06-14T15:11:14;22.83;;;21.58;;
1136;SDS011;557;48.466;7.950;2023-06-14T15:14:01;22.88;;;21.52;;
1136;SDS011;557;48.466;7.950;2023-06-14T15:16:49;22.75;;;21.55;;
1136;SDS011;557;48.466;7.950;2023-06-14T15:19:36;23.02;;;21.70;;
1136;SDS011;557;48.466;7.950;2023-06-14T15:22:23;23.00;;;21.60;;
1136;SDS011;557;48.466;7.950;2023-06-14T15:25:12;24.15;;;22.75;;
1136;SDS011;557;48.466;7.950;2023-06-14T15:27:59;24.98;;;23.48;;
1136;SDS011;557;48.466;7.950;2023-06-14T15:30:51;25.77;;;24.02;;
1136;SDS011;557;48.466;7.950;2023-06-14T15:33:39;25.27;;;23.77;;
1136;SDS011;557;48.466;7.950;2023-06-14T15:36:26;22.90;;;21.30;;
1136;SDS011;557;48.466;7.950;2023-06-14T15:39:13;22.58;;;21.25;;
1136;SDS011;557;48.466;7.950;2023-06-14T15:42:02;22.55;;;21.20;;
1136;SDS011;557;48.466;7.950;2023-06-14T15:44:51;23.05;;;21.70;;
1136;SDS011;557;48.466;7.950;2023-06-14T15:47:38;22.73;;;21.40;;
1136;SDS011;557;48.466;7.950;2023-06-14T15:50:25;22.42;;;21.13;;
1136;SDS011;557;48.466;7.950;2023-06-14T15:53:13;23.02;;;21.63;;
1136;SDS011;557;48.466;7.950;2023-06-14T15:56:01;22.75;;;21.35;;
1136;SDS011;557;48.466;7.950;2023-06-14T15:58:49;23.52;;;22.10;;
1136;SDS011;557;48.466;7.950;2023-06-14T16:01:37;23.27;;;21.83;;
1136;SDS011;557;48.466;7.950;2023-06-14T16:04:24;22.40;;;21.20;;
1136;SDS011;557;48.466;7.950;2023-06-14T16:07:12;22.63;;;21.40;;
1136;SDS011;557;48.466;7.950;2023-06-14T16:10:00;23.00;;;21.70;;
1136;SDS011;557;48.466;7.950;2023-06-14T16:12:47;22.88;;;21.48;;
1136;SDS011;557;48.466;7.950;2023-06-14T16:15:36;23.08;;;21.88;;
1136;SDS011;557;48.466;7.950;2023-06-14T16:18:23;22.40;;;20.95;;
1136;SDS011;557;48.466;7.950;2023-06-14T16:21:11;22.50;;;21.20;;
1136;SDS011;557;48.466;7.950;2023-06-14T16:23:58;21.70;;;20.50;;
1136;SDS011;557;48.466;7.950;2023-06-14T16:26:46;23.13;;;21.77;;
1136;SDS011;557;48.466;7.950;2023-06-14T16:29:34;21.60;;;20.40;;
1136;SDS011;557;48.466;7.950;2023-06-14T16:32:23;20.88;;;19.70;;
1136;SDS011;557;48.466;7.950;2023-06-14T16:35:10;21.88;;;20.58;;
1136;SDS011;557;48.466;7.950;2023-06-14T16:37:57;22.42;;;21.00;;
1136;SDS011;557;48.466;7.950;2023-06-14T16:40:45;21.60;;;20.38;;
1136;SDS011;557;48.466;7.950;2023-06-14T16:43:32;21.50;;;20.30;;
1136;SDS011;557;48.466;7.950;2023-06-14T16:46:27;21.98;;;20.77;;
1136;SDS011;557;48.466;7.950;2023-06-14T16:49:17;22.63;;;21.00;;
1136;SDS011;557;48.466;7.950;2023-06-14T16:52:05;21.73;;;20.52;;
1136;SDS011;557;48.466;7.950;2023-06-14T16:54:53;22.83;;;21.48;;
1136;SDS011;557;48.466;7.950;2023-06-14T16:57:40;22.38;;;21.08;;
1136;SDS011;557;48.466;7.950;2023-06-14T17:00:27;21.52;;;20.25;;
1136;SDS011;557;48.466;7.950;2023-06-14T17:03:15;21.77;;;20.48;;
1136;SDS011;557;48.466;7.950;2023-06-14T17:06:03;21.55;;;20.35;;
1136;SDS011;557;48.466;7.950;2023-06-14T17:08:52;22.45;;;21.15;;
1136;SDS011;557;48.466;7.950;2023-06-14T17:11:39;21.08;;;19.77;;
1136;SDS011;557;48.466;7.950;2023-06-14T17:14:26;21.25;;;20.00;;
1136;SDS011;557;48.466;7.950;2023-06-14T17:17:14;21.10;;;19.90;;
1136;SDS011;557;48.466;7.950;2023-06-14T17:20:01;20.88;;;19.77;;
1136;SDS011;557;48.466;7.950;2023-06-14T17:22:50;21.25;;;20.05;;
1136;SDS011;557;48.466;7.950;2023-06-14T17:25:38;20.98;;;19.85;;
1136;SDS011;557;48.466;7.950;2023-06-14T17:28:25;22.60;;;21.20;;
1136;SDS011;557;48.466;7.950;2023-06-14T17:31:12;21.30;;;20.10;;
1136;SDS011;557;48.466;7.950;2023-06-14T17:34:00;21.08;;;19.65;;